createdAt,value
2022-09-15T00:00:51.255Z,15.10
2022-09-15T00:03:48.590Z,15.20
2022-09-15T00:06:45.418Z,15.20
2022-09-15T00:09:42.215Z,15.20
2022-09-15T00:12:39.099Z,15.20
2022-09-15T00:15:36.513Z,15.20
2022-09-15T00:18:35.493Z,15.20
2022-09-15T00:21:35.544Z,15.20
2022-09-15T00:24:32.742Z,15.20
2022-09-15T00:27:30.972Z,15.20
2022-09-15T00:30:27.853Z,15.20
2022-09-15T00:33:24.777Z,15.20
2022-09-15T00:36:23.637Z,15.30
2022-09-15T00:39:20.600Z,15.20
2022-09-15T00:42:22.757Z,15.20
2022-09-15T00:45:19.580Z,15.10
2022-09-15T00:48:21.982Z,15.10
2022-09-15T00:51:23.994Z,15.10
2022-09-15T00:54:43.673Z,15.10
2022-09-15T00:57:54.085Z,15.10
2022-09-15T01:01:01.364Z,15.10
2022-09-15T01:03:59.097Z,15.00
2022-09-15T01:07:03.176Z,15.20
2022-09-15T01:10:07.206Z,15.20
2022-09-15T01:13:11.493Z,15.10
2022-09-15T01:16:31.783Z,15.00
2022-09-15T01:20:18.379Z,15.00
2022-09-15T01:24:11.923Z,15.10
2022-09-15T01:27:50.862Z,15.00
2022-09-15T01:31:05.138Z,15.00
2022-09-15T01:34:18.503Z,15.20
2022-09-15T01:37:26.782Z,15.10
2022-09-15T01:40:28.316Z,15.10
2022-09-15T01:43:27.217Z,15.00
2022-09-15T01:46:27.735Z,15.00
2022-09-15T01:49:30.394Z,15.10
2022-09-15T01:52:29.095Z,15.10
2022-09-15T01:55:55.318Z,15.00
2022-09-15T01:58:52.378Z,15.00
2022-09-15T02:02:01.701Z,15.00
2022-09-15T02:05:01.670Z,15.00
2022-09-15T02:08:12.630Z,15.00
2022-09-15T02:11:20.738Z,14.90
2022-09-15T02:14:39.152Z,14.90
2022-09-15T02:17:54.093Z,14.90
2022-09-15T02:20:57.702Z,15.10
2022-09-15T02:24:03.508Z,15.10
2022-09-15T02:27:02.768Z,15.00
2022-09-15T02:30:08.690Z,15.00
2022-09-15T02:33:09.381Z,15.00
2022-09-15T02:36:07.487Z,15.00
2022-09-15T02:39:11.233Z,15.00
2022-09-15T02:42:08.087Z,15.00
2022-09-15T02:45:06.571Z,14.90
2022-09-15T02:48:04.250Z,14.90
2022-09-15T02:51:01.245Z,14.90
2022-09-15T02:53:58.212Z,14.90
2022-09-15T02:56:55.012Z,14.90
2022-09-15T03:00:10.433Z,15.00
2022-09-15T03:03:07.235Z,15.00
2022-09-15T03:06:21.124Z,14.90
2022-09-15T03:09:17.946Z,15.00
2022-09-15T03:12:14.763Z,15.00
2022-09-15T03:15:14.486Z,15.00
2022-09-15T03:18:13.127Z,15.00
2022-09-15T03:21:18.032Z,15.00
2022-09-15T03:24:15.372Z,14.90
2022-09-15T03:27:12.423Z,15.00
2022-09-15T03:30:10.857Z,14.90
2022-09-15T03:33:07.717Z,14.90
2022-09-15T03:36:05.297Z,14.90
2022-09-15T03:39:02.128Z,14.90
2022-09-15T03:41:58.983Z,14.80
2022-09-15T03:44:55.778Z,14.80
2022-09-15T03:47:52.554Z,14.80
2022-09-15T03:50:49.687Z,14.80
2022-09-15T03:53:46.664Z,14.90
2022-09-15T03:56:43.965Z,14.90
2022-09-15T03:59:40.770Z,14.90
2022-09-15T04:02:37.554Z,14.90
2022-09-15T04:05:35.158Z,14.90
2022-09-15T04:08:32.022Z,14.90
2022-09-15T04:11:28.933Z,14.90
2022-09-15T04:14:25.805Z,14.90
2022-09-15T04:17:22.684Z,14.90
2022-09-15T04:20:19.515Z,14.90
2022-09-15T04:23:16.754Z,14.90
2022-09-15T04:26:26.021Z,14.90
2022-09-15T04:29:23.329Z,14.90
2022-09-15T04:32:21.090Z,14.80
2022-09-15T04:35:17.995Z,14.80
2022-09-15T04:38:14.809Z,14.90
2022-09-15T04:41:13.021Z,14.90
2022-09-15T04:44:09.856Z,14.80
2022-09-15T04:47:07.375Z,14.80
2022-09-15T04:50:04.696Z,14.70
2022-09-15T04:53:01.500Z,14.70
2022-09-15T04:56:08.003Z,14.70
2022-09-15T04:59:04.849Z,14.80
2022-09-15T05:02:01.673Z,14.80
2022-09-15T05:04:58.724Z,14.70
2022-09-15T05:07:55.530Z,14.70
2022-09-15T05:10:53.189Z,14.60
2022-09-15T05:13:50.431Z,14.50
2022-09-15T05:16:47.235Z,14.50
2022-09-15T05:19:44.052Z,14.50
2022-09-15T05:22:41.991Z,14.40
2022-09-15T05:25:38.929Z,14.40
2022-09-15T05:28:37.661Z,14.30
2022-09-15T05:31:35.059Z,14.30
2022-09-15T05:34:32.017Z,14.20
2022-09-15T05:37:28.808Z,14.10
2022-09-15T05:40:25.641Z,13.90
2022-09-15T05:43:22.483Z,13.80
2022-09-15T05:46:20.483Z,13.80
2022-09-15T05:49:17.394Z,13.90
2022-09-15T05:52:14.377Z,13.80
2022-09-15T05:55:11.368Z,13.80
2022-09-15T05:58:08.503Z,13.80
2022-09-15T06:01:13.278Z,13.80
2022-09-15T06:04:10.147Z,14.10
2022-09-15T06:07:07.017Z,14.10
2022-09-15T06:10:04.871Z,14.00
2022-09-15T06:13:01.696Z,14.10
2022-09-15T06:16:04.419Z,14.00
2022-09-15T06:19:01.944Z,14.10
2022-09-15T06:21:58.770Z,14.10
2022-09-15T06:24:55.570Z,14.00
2022-09-15T06:27:52.388Z,13.80
2022-09-15T06:30:49.523Z,13.80
2022-09-15T06:33:51.092Z,13.90
2022-09-15T06:36:48.194Z,13.70
2022-09-15T06:39:45.039Z,13.70
2022-09-15T06:42:41.913Z,13.70
2022-09-15T06:45:38.714Z,13.70
2022-09-15T06:48:37.115Z,13.70
2022-09-15T06:51:36.136Z,13.70
2022-09-15T06:54:33.052Z,13.60
2022-09-15T06:57:29.868Z,13.70
2022-09-15T07:00:27.216Z,13.70
2022-09-15T07:03:24.113Z,13.70
2022-09-15T07:06:22.303Z,13.70
2022-09-15T07:09:19.577Z,13.80
2022-09-15T07:12:16.405Z,13.90
2022-09-15T07:15:13.233Z,13.90
2022-09-15T07:18:10.053Z,13.90
2022-09-15T07:21:14.287Z,13.90
2022-09-15T07:24:11.206Z,14.00
2022-09-15T07:27:08.858Z,13.80
2022-09-15T07:30:08.551Z,14.00
2022-09-15T07:33:11.310Z,14.00
2022-09-15T07:36:09.320Z,14.10
2022-09-15T07:39:06.535Z,14.10
2022-09-15T07:42:04.406Z,14.10
2022-09-15T07:45:01.200Z,14.10
2022-09-15T07:47:58.051Z,14.10
2022-09-15T07:50:55.535Z,14.30
2022-09-15T07:53:53.824Z,14.30
2022-09-15T07:56:50.734Z,14.30
2022-09-15T07:59:47.535Z,14.40
2022-09-15T08:02:44.377Z,14.40
2022-09-15T08:05:45.429Z,14.50
2022-09-15T08:08:45.945Z,14.60
2022-09-15T08:11:42.912Z,14.60
2022-09-15T08:14:39.787Z,14.40
2022-09-15T08:17:36.580Z,14.40
2022-09-15T08:20:33.831Z,14.30
2022-09-15T08:23:30.655Z,14.30
2022-09-15T08:26:29.669Z,14.30
2022-09-15T08:29:26.484Z,14.40
2022-09-15T08:32:23.410Z,14.60
2022-09-15T08:35:20.307Z,14.70
2022-09-15T08:38:17.129Z,14.70
2022-09-15T08:41:33.914Z,15.00
2022-09-15T08:44:59.471Z,15.20
2022-09-15T08:48:03.444Z,15.40
2022-09-15T08:51:05.719Z,15.50
2022-09-15T08:54:13.336Z,15.60
2022-09-15T08:57:18.240Z,15.50
2022-09-15T09:00:16.842Z,15.20
2022-09-15T09:03:31.005Z,15.10
2022-09-15T09:06:46.512Z,15.30
2022-09-15T09:10:01.553Z,15.20
2022-09-15T09:13:22.939Z,15.30
2022-09-15T09:16:52.392Z,15.50
2022-09-15T09:20:22.787Z,15.60
2022-09-15T09:23:25.034Z,15.80
2022-09-15T09:26:21.880Z,16.10
2022-09-15T09:29:26.751Z,16.30
2022-09-15T09:32:27.574Z,16.20
2022-09-15T09:35:45.809Z,16.20
2022-09-15T09:38:46.876Z,16.30
2022-09-15T09:41:44.138Z,16.50
2022-09-15T09:44:41.642Z,16.70
2022-09-15T09:47:40.742Z,16.50
2022-09-15T09:50:47.872Z,16.60
2022-09-15T09:53:53.448Z,16.50
2022-09-15T09:56:52.376Z,16.60
2022-09-15T09:59:50.721Z,16.80
2022-09-15T10:02:47.787Z,16.70
2022-09-15T10:05:59.356Z,16.90
2022-09-15T10:09:05.666Z,16.80
2022-09-15T10:12:04.358Z,16.60
2022-09-15T10:15:05.836Z,16.50
2022-09-15T10:18:03.151Z,16.50
2022-09-15T10:21:07.483Z,17.10
2022-09-15T10:24:35.196Z,16.80
2022-09-15T10:27:36.800Z,16.40
2022-09-15T10:30:33.642Z,16.50
2022-09-15T10:33:35.474Z,16.40
2022-09-15T10:36:32.475Z,16.50
2022-09-15T10:39:38.839Z,16.60
2022-09-15T10:42:49.525Z,16.50
2022-09-15T10:45:58.812Z,16.20
2022-09-15T10:49:24.160Z,16.50
2022-09-15T10:52:52.472Z,16.40
2022-09-15T10:56:34.900Z,16.60
2022-09-15T10:59:45.679Z,16.90
2022-09-15T11:02:53.336Z,17.00
2022-09-15T11:06:18.741Z,16.80
2022-09-15T11:09:29.348Z,17.00
2022-09-15T11:12:59.004Z,16.90
2022-09-15T11:16:51.193Z,16.90
2022-09-15T11:20:14.876Z,16.70
2022-09-15T11:23:37.419Z,16.70
2022-09-15T11:26:42.210Z,16.60
2022-09-15T11:29:53.795Z,16.50
2022-09-15T11:33:04.339Z,16.10
2022-09-15T11:36:35.121Z,15.90
2022-09-15T11:39:41.370Z,15.70
2022-09-15T11:42:53.278Z,15.80
2022-09-15T11:45:56.618Z,15.50
2022-09-15T11:49:15.207Z,15.60
2022-09-15T11:52:46.694Z,15.70
2022-09-15T11:56:21.813Z,15.80
2022-09-15T11:59:39.112Z,15.90
2022-09-15T12:03:24.800Z,16.10
2022-09-15T12:06:46.248Z,16.40
2022-09-15T12:09:43.343Z,16.60
2022-09-15T12:12:44.058Z,16.70
2022-09-15T12:15:41.012Z,16.60
2022-09-15T12:18:52.415Z,16.50
2022-09-15T12:22:21.216Z,16.50
2022-09-15T12:25:35.830Z,16.40
2022-09-15T12:29:24.241Z,16.40
2022-09-15T12:32:33.319Z,16.40
2022-09-15T12:35:32.089Z,16.60
2022-09-15T12:38:30.411Z,16.70
2022-09-15T12:41:28.452Z,16.80
2022-09-15T12:44:32.041Z,16.80
2022-09-15T12:47:49.196Z,16.60
2022-09-15T12:51:05.197Z,16.50
2022-09-15T12:54:07.387Z,16.70
2022-09-15T12:57:06.318Z,16.50
2022-09-15T13:00:21.162Z,16.00
2022-09-15T13:06:40.624Z,15.90
2022-09-15T13:10:14.406Z,15.80
2022-09-15T13:13:40.708Z,15.70
2022-09-15T13:16:40.444Z,15.70
2022-09-15T13:19:44.368Z,16.00
2022-09-15T13:22:48.444Z,15.80
2022-09-15T13:25:46.402Z,15.50
2022-09-15T13:28:44.174Z,15.60
2022-09-15T13:32:08.484Z,15.40
2022-09-15T13:35:24.363Z,15.50
2022-09-15T13:38:35.960Z,15.20
2022-09-15T13:42:40.103Z,15.30
2022-09-15T13:45:40.177Z,15.20
2022-09-15T13:49:01.443Z,15.30
2022-09-15T13:52:25.543Z,15.20
2022-09-15T13:55:27.827Z,15.20
2022-09-15T14:01:43.572Z,15.50
2022-09-15T14:04:40.480Z,15.30
2022-09-15T14:07:37.379Z,15.30
2022-09-15T14:10:50.743Z,15.20
2022-09-15T14:13:50.304Z,15.20
2022-09-15T14:16:50.544Z,15.40
2022-09-15T14:19:50.229Z,15.30
2022-09-15T14:22:49.905Z,15.10
2022-09-15T14:25:46.942Z,15.10
2022-09-15T14:28:55.291Z,15.20
2022-09-15T14:31:53.304Z,15.30
2022-09-15T14:34:51.024Z,15.30
2022-09-15T14:37:50.191Z,15.40
2022-09-15T14:40:52.503Z,15.40
2022-09-15T14:43:49.312Z,15.40
2022-09-15T14:46:46.673Z,15.30
2022-09-15T14:49:43.565Z,15.40
2022-09-15T14:53:01.788Z,15.50
2022-09-15T14:56:19.069Z,15.30
2022-09-15T14:59:33.618Z,15.50
2022-09-15T15:03:02.900Z,15.40
2022-09-15T15:06:30.170Z,15.40
2022-09-15T15:09:47.146Z,15.40
2022-09-15T15:12:51.240Z,15.80
2022-09-15T15:15:48.472Z,15.80
2022-09-15T15:18:45.361Z,15.80
2022-09-15T15:21:44.370Z,15.90
2022-09-15T15:24:44.807Z,15.80
2022-09-15T15:27:42.688Z,15.80
2022-09-15T15:30:45.291Z,15.80
2022-09-15T15:33:56.639Z,15.80
2022-09-15T15:37:04.126Z,15.70
2022-09-15T15:40:07.290Z,15.80
2022-09-15T15:43:22.551Z,15.90
2022-09-15T15:46:55.713Z,15.90
2022-09-15T15:50:13.280Z,15.90
2022-09-15T15:53:11.186Z,15.60
2022-09-15T15:56:08.375Z,15.40
2022-09-15T15:59:05.937Z,15.40
2022-09-15T16:02:03.236Z,15.50
2022-09-15T16:05:00.086Z,15.40
2022-09-15T16:08:05.781Z,15.50
2022-09-15T16:11:03.014Z,15.30
2022-09-15T16:13:59.817Z,15.30
2022-09-15T16:16:59.621Z,15.40
2022-09-15T16:19:56.430Z,15.20
2022-09-15T16:22:53.239Z,15.30
2022-09-15T16:26:05.169Z,15.30
2022-09-15T16:29:02.103Z,15.10
2022-09-15T16:31:59.388Z,15.20
2022-09-15T16:34:56.350Z,15.10
2022-09-15T16:37:53.201Z,14.90
2022-09-15T16:40:51.156Z,14.70
2022-09-15T16:43:47.989Z,14.60
2022-09-15T16:46:45.352Z,14.40
2022-09-15T16:49:42.644Z,14.40
2022-09-15T16:52:39.497Z,14.20
2022-09-15T16:55:40.991Z,14.10
2022-09-15T16:58:38.250Z,14.10
2022-09-15T17:01:35.527Z,14.10
2022-09-15T17:04:32.802Z,14.00
2022-09-15T17:07:29.586Z,14.00
2022-09-15T17:10:26.537Z,13.90
2022-09-15T17:13:29.319Z,13.90
2022-09-15T17:16:27.380Z,13.90
2022-09-15T17:19:24.201Z,13.80
2022-09-15T17:22:21.303Z,13.70
2022-09-15T17:25:35.599Z,13.80
2022-09-15T17:28:36.446Z,13.90
2022-09-15T17:31:33.346Z,13.70
2022-09-15T17:34:30.240Z,13.50
2022-09-15T17:37:27.028Z,13.40
2022-09-15T17:40:23.949Z,13.30
2022-09-15T17:43:23.863Z,13.30
2022-09-15T17:46:20.832Z,13.20
2022-09-15T17:49:17.684Z,13.10
2022-09-15T17:52:14.541Z,12.90
2022-09-15T17:55:15.959Z,12.90
2022-09-15T17:58:13.001Z,12.70
2022-09-15T18:01:14.699Z,12.80
2022-09-15T18:04:11.719Z,12.80
2022-09-15T18:07:09.211Z,12.80
2022-09-15T18:10:06.413Z,12.80
2022-09-15T18:13:05.268Z,12.70
2022-09-15T18:16:09.984Z,12.80
2022-09-15T18:19:06.815Z,12.60
2022-09-15T18:22:04.637Z,12.60
2022-09-15T18:25:01.515Z,12.60
2022-09-15T18:27:59.989Z,12.60
2022-09-15T18:31:01.354Z,12.60
2022-09-15T18:33:58.627Z,12.50
2022-09-15T18:36:58.439Z,12.50
2022-09-15T18:39:55.318Z,12.30
2022-09-15T18:42:52.451Z,12.30
2022-09-15T18:45:50.322Z,12.20
2022-09-15T18:48:47.236Z,12.30
2022-09-15T18:51:52.090Z,12.20
2022-09-15T18:54:49.069Z,12.20
2022-09-15T18:57:51.926Z,12.10
2022-09-15T19:00:49.072Z,12.10
2022-09-15T19:03:46.257Z,12.00
2022-09-15T19:06:43.139Z,12.30
2022-09-15T19:09:39.938Z,12.30
2022-09-15T19:12:37.266Z,12.30
2022-09-15T19:15:34.628Z,12.30
2022-09-15T19:18:32.470Z,12.20
2022-09-15T19:21:29.271Z,12.10
2022-09-15T19:24:31.941Z,12.00
2022-09-15T19:27:28.891Z,11.90
2022-09-15T19:30:25.710Z,11.80
2022-09-15T19:33:22.527Z,12.00
2022-09-15T19:36:28.069Z,11.90
2022-09-15T19:39:25.535Z,12.00
2022-09-15T19:42:22.375Z,12.10
2022-09-15T19:45:19.202Z,12.10
2022-09-15T19:48:16.011Z,12.00
2022-09-15T19:51:14.412Z,12.00
2022-09-15T19:54:11.604Z,11.90
2022-09-15T19:57:08.582Z,12.00
2022-09-15T20:00:07.177Z,12.00
2022-09-15T20:03:04.014Z,12.00
2022-09-15T20:06:04.269Z,11.90
2022-09-15T20:09:01.192Z,11.90
2022-09-15T20:11:58.556Z,11.80
2022-09-15T20:14:55.352Z,11.80
2022-09-15T20:17:52.174Z,11.70
2022-09-15T20:20:49.081Z,11.80
2022-09-15T20:23:45.940Z,11.80
2022-09-15T20:26:43.791Z,11.70
2022-09-15T20:29:40.723Z,11.70
2022-09-15T20:32:37.520Z,11.60
2022-09-15T20:35:34.299Z,11.70
2022-09-15T20:38:33.312Z,11.70
2022-09-15T20:41:33.891Z,11.60
2022-09-15T20:44:30.691Z,11.70
2022-09-15T20:47:27.491Z,11.80
2022-09-15T20:50:25.206Z,11.70
2022-09-15T20:53:22.231Z,11.80
2022-09-15T20:56:24.644Z,11.70
2022-09-15T20:59:21.422Z,11.70
2022-09-15T21:02:18.319Z,11.60
2022-09-15T21:05:15.220Z,11.70
2022-09-15T21:08:13.013Z,11.70
2022-09-15T21:11:11.583Z,11.60
2022-09-15T21:14:15.405Z,11.60
2022-09-15T21:17:12.222Z,11.60
2022-09-15T21:20:09.540Z,11.60
2022-09-15T21:23:07.274Z,11.50
2022-09-15T21:26:07.777Z,11.30
2022-09-15T21:29:04.568Z,11.30
2022-09-15T21:32:02.263Z,11.20
2022-09-15T21:35:00.104Z,11.20
2022-09-15T21:38:00.535Z,11.20
2022-09-15T21:40:57.588Z,11.30
2022-09-15T21:43:55.859Z,11.30
2022-09-15T21:46:52.894Z,11.20
2022-09-15T21:49:50.604Z,11.40
2022-09-15T21:52:47.418Z,11.30
2022-09-15T21:55:44.217Z,11.40
2022-09-15T21:58:43.130Z,11.50
2022-09-15T22:01:40.805Z,11.50
2022-09-15T22:04:38.295Z,11.40
2022-09-15T22:07:35.151Z,11.40
2022-09-15T22:10:31.968Z,11.50
2022-09-15T22:13:28.816Z,11.40
2022-09-15T22:16:26.223Z,11.30
2022-09-15T22:19:23.115Z,11.40
2022-09-15T22:22:19.924Z,11.40
2022-09-15T22:25:21.694Z,11.50
2022-09-15T22:28:18.756Z,11.50
2022-09-15T22:31:18.829Z,11.50
2022-09-15T22:34:15.648Z,11.40
2022-09-15T22:37:12.490Z,11.20
2022-09-15T22:40:10.071Z,11.30
2022-09-15T22:43:07.017Z,11.30
2022-09-15T22:46:05.055Z,11.30
2022-09-15T22:49:02.301Z,11.40
2022-09-15T22:51:59.134Z,11.40
2022-09-15T22:54:56.021Z,11.50
2022-09-15T22:57:52.807Z,11.50
2022-09-15T23:00:49.847Z,11.50
2022-09-15T23:03:55.659Z,11.30
2022-09-15T23:06:52.496Z,11.30
2022-09-15T23:09:49.344Z,11.20
2022-09-15T23:12:46.155Z,11.30
2022-09-15T23:15:43.803Z,11.30
2022-09-15T23:18:40.597Z,11.10
2022-09-15T23:21:37.394Z,11.10
2022-09-15T23:24:34.210Z,11.00
2022-09-15T23:27:31.120Z,10.90
2022-09-15T23:30:27.929Z,10.90
2022-09-15T23:33:26.888Z,10.80
2022-09-15T23:36:23.777Z,10.80
2022-09-15T23:39:20.590Z,10.80
2022-09-15T23:42:19.064Z,10.90
2022-09-15T23:45:16.074Z,10.80
2022-09-15T23:48:14.301Z,10.90
2022-09-15T23:51:11.304Z,10.80
2022-09-15T23:54:08.126Z,11.00
2022-09-15T23:57:04.959Z,11.00
